»·PEaware :: N1718G M94-S36

N1718G :: M94-S36

FLIGHT INFORMATION

Flight Status: Arrived
Operator: Privately registered:
United States
More flights under this callsign
Pilot: Spencer M. (27733)
Aircraft: PIPER PA-28 CHEROKEE ARCHER
(P28A)
More flights by this aircraft type
Origin: M94 Desert Aire
United States
Destination: S36 Norman Grier Field
United States
More flights between these airports :: More routes between these airports
Route: PAPPS V204 YKM 95WA
File this flight plan on PilotEdge
Remarks: MYFLIGHTROUTE Alphabet Challenge Washington
Altitude:
(Current/Filed)
8,500ft
Speed:
(Current/Filed)
125kts
Departed: 19-Apr-20 07:37 PM
Arrived: 19-Apr-20 08:42 PM
Distance/Time
Traveled:
98nm/1:05
Distance/Time
To Go:
Arrived

Flight Plot

Page will automatically refresh every two minutes.

Flight plan parsing failed; only flown route is shown


Map Options




Map Legend


Flown Route
Filed Route
Departure Airport
Arrival Airport
Navaid (VOR, NDB)
Fix

Horizontal Profiles

Position Reports

Time Latitude Longitude Heading Altitude Ground
Speed
19-Apr-20 19:24 46.974163 -118.590707 203 1509ft 0kts
19-Apr-20 19:25 46.974163 -118.590707 203 1509ft 0kts
19-Apr-20 19:26 46.974163 -118.590707 203 1509ft 0kts
19-Apr-20 19:27 46.974163 -118.590707 203 1509ft 0kts
19-Apr-20 19:28 46.974163 -118.590707 203 1509ft 0kts
19-Apr-20 19:30 46.684504 -119.913870 115 585ft 0kts
19-Apr-20 19:31 46.684504 -119.913870 115 585ft 0kts
19-Apr-20 19:32 46.684504 -119.913870 115 585ft 0kts
19-Apr-20 19:33 46.684578 -119.913614 39 586ft 1kts
19-Apr-20 19:34 46.684579 -119.913613 39 586ft 0kts
19-Apr-20 19:35 46.684579 -119.913613 39 586ft 0kts
19-Apr-20 19:36 46.688538 -119.923994 293 667ft 91kts
19-Apr-20 19:37 46.681150 -119.953944 174 1463ft 102kts
19-Apr-20 19:38 46.654736 -119.938749 148 2292ft 104kts
19-Apr-20 19:39 46.636202 -119.909094 117 3040ft 105kts
19-Apr-20 19:40 46.609564 -119.895929 171 3796ft 104kts
19-Apr-20 19:41 46.580860 -119.891745 178 4593ft 104kts
19-Apr-20 19:42 46.552099 -119.887646 171 5395ft 104kts
19-Apr-20 19:43 46.523877 -119.881261 170 6192ft 101kts
19-Apr-20 19:44 46.496531 -119.874885 170 6986ft 98kts
19-Apr-20 19:45 46.470184 -119.868743 170 7782ft 93kts
19-Apr-20 19:46 46.444129 -119.865391 207 8429ft 101kts
19-Apr-20 19:47 46.447390 -119.907335 292 8501ft 125kts
19-Apr-20 19:48 46.459132 -119.954860 288 8500ft 123kts
19-Apr-20 19:49 46.469763 -120.001148 288 8497ft 119kts
19-Apr-20 19:50 46.480208 -120.046851 288 8496ft 119kts
19-Apr-20 19:51 46.490646 -120.092622 288 8496ft 119kts
19-Apr-20 19:53 46.501042 -120.138300 288 8496ft 119kts
19-Apr-20 19:54 46.511431 -120.184050 288 8496ft 119kts
19-Apr-20 19:55 46.521893 -120.230236 288 8498ft 124kts
19-Apr-20 19:56 46.532773 -120.278338 288 8499ft 126kts
19-Apr-20 19:57 46.543780 -120.327130 288 8500ft 127kts
19-Apr-20 19:58 46.554772 -120.375963 288 8499ft 127kts
19-Apr-20 19:59 46.565787 -120.425015 288 8499ft 127kts
19-Apr-20 20:00 46.582298 -120.469941 304 8494ft 126kts
19-Apr-20 20:01 46.602270 -120.512104 304 8494ft 126kts
19-Apr-20 20:02 46.622194 -120.554079 304 8493ft 126kts
19-Apr-20 20:03 46.642191 -120.596268 304 8493ft 126kts
19-Apr-20 20:04 46.662087 -120.638346 304 8493ft 126kts
19-Apr-20 20:05 46.682048 -120.680656 303 8492ft 126kts
19-Apr-20 20:06 46.701896 -120.722739 303 8492ft 126kts
19-Apr-20 20:07 46.721880 -120.765159 303 8492ft 126kts
19-Apr-20 20:08 46.741762 -120.807426 303 8491ft 126kts
19-Apr-20 20:09 46.761624 -120.849713 303 8491ft 126kts
19-Apr-20 20:10 46.781465 -120.892021 303 8491ft 126kts
19-Apr-20 20:10 46.797996 -120.927319 303 8491ft 126kts
19-Apr-20 20:11 46.817772 -120.969604 303 8490ft 126kts
19-Apr-20 20:13 46.840876 -121.019088 303 8490ft 126kts
19-Apr-20 20:13 46.857422 -121.054581 303 8489ft 126kts
19-Apr-20 20:14 46.877194 -121.097053 303 8489ft 126kts
19-Apr-20 20:16 46.900222 -121.146601 303 8489ft 126kts
19-Apr-20 20:16 46.916801 -121.182110 304 8489ft 126kts
19-Apr-20 20:17 46.936525 -121.224573 304 8489ft 126kts
19-Apr-20 20:19 46.959581 -121.274386 304 8489ft 126kts
19-Apr-20 20:19 46.976088 -121.310120 304 8489ft 126kts
19-Apr-20 20:20 46.995807 -121.352868 304 8489ft 126kts
19-Apr-20 20:21 47.015174 -121.394920 304 8489ft 126kts
19-Apr-20 20:22 47.031171 -121.429703 304 8489ft 126kts
19-Apr-20 20:23 47.050848 -121.472548 304 8490ft 126kts
19-Apr-20 20:24 47.069752 -121.516310 300 8415ft 129kts
19-Apr-20 20:25 47.087185 -121.563182 297 8041ft 131kts
19-Apr-20 20:26 47.102423 -121.612056 294 7602ft 132kts
19-Apr-20 20:27 47.117573 -121.661941 293 7101ft 134kts
19-Apr-20 20:28 47.132730 -121.711825 293 6601ft 134kts
19-Apr-20 20:29 47.147913 -121.761754 294 6099ft 129kts
19-Apr-20 20:30 47.161633 -121.806988 293 5591ft 118kts
19-Apr-20 20:31 47.176218 -121.851226 296 5095ft 122kts
19-Apr-20 20:32 47.190899 -121.895929 296 4611ft 122kts
19-Apr-20 20:33 47.205302 -121.940727 293 4166ft 121kts
19-Apr-20 20:34 47.215052 -121.987817 282 3739ft 120kts
19-Apr-20 20:35 47.223675 -122.034453 293 3111ft 116kts
19-Apr-20 20:36 47.239843 -122.070759 315 2357ft 104kts
19-Apr-20 20:37 47.264607 -122.088993 354 1846ft 90kts
19-Apr-20 20:38 47.288072 -122.092362 350 1499ft 74kts
19-Apr-20 20:39 47.308566 -122.096739 353 1031ft 74kts
19-Apr-20 20:40 47.327117 -122.101179 353 626ft 62kts
19-Apr-20 20:41 47.339934 -122.104070 36 475ft 9kts
19-Apr-20 20:42 47.340003 -122.103786 87 475ft 0kts

Navigation Log

Ident Type
Flight plan parsing failed, navigation log unavailable